Time;durP1;ratioP1;P1;durP2;ratioP2;P2;SDS_P1;SDS_P2;PMS_P1;PMS_P2;Temp;Humidity;BMP_temperature;BMP_pressure;BME280_temperature;BME280_humidity;BME280_pressure;Samples;Min_cycle;Max_cycle;Signal;HPM_P1;HPM_P2
2021/12/30 00:00:27;;;;;;;24.20;19.73;;;;;;;;;;5074744;28;20199;-63
2021/12/30 00:02:53;;;;;;;25.10;19.60;;;;;;;;;;5074297;28;20277;-63
2021/12/30 00:05:19;;;;;;;25.23;19.63;;;;;;;;;;5073690;28;20714;-63
2021/12/30 00:07:45;;;;;;;25.17;20.27;;;;;;;;;;5074249;28;20286;-64
2021/12/30 00:10:11;;;;;;;27.77;19.83;;;;;;;;;;5074008;28;20207;-64
2021/12/30 00:12:38;;;;;;;27.80;20.40;;;;;;;;;;5074071;28;20196;-63
2021/12/30 00:15:07;;;;;;;28.73;21.30;;;;;;;;;;5074239;28;20195;-63
2021/12/30 00:17:33;;;;;;;27.13;20.17;;;;;;;;;;5074146;28;20199;-63
2021/12/30 00:20:00;;;;;;;32.10;20.17;;;;;;;;;;5074143;28;20290;-62
2021/12/30 00:22:27;;;;;;;35.23;21.20;;;;;;;;;;5073987;28;20677;-62
2021/12/30 00:24:53;;;;;;;29.60;20.47;;;;;;;;;;5073966;28;20670;-62
2021/12/30 00:27:20;;;;;;;32.03;21.33;;;;;;;;;;5074096;28;20217;-63
2021/12/30 00:29:46;;;;;;;29.60;19.90;;;;;;;;;;5074076;28;20222;-63
2021/12/30 00:32:13;;;;;;;24.90;19.70;;;;;;;;;;5073861;28;20291;-63
2021/12/30 00:34:39;;;;;;;26.47;19.63;;;;;;;;;;5073098;28;20196;-62
2021/12/30 00:37:05;;;;;;;28.90;20.57;;;;;;;;;;5073521;28;20555;-63
2021/12/30 00:39:31;;;;;;;27.30;19.87;;;;;;;;;;5073937;28;20198;-62
2021/12/30 00:41:57;;;;;;;24.97;18.60;;;;;;;;;;5073311;28;20336;-63
2021/12/30 00:44:23;;;;;;;28.33;20.43;;;;;;;;;;5073424;28;20694;-62
2021/12/30 00:46:49;;;;;;;38.20;20.00;;;;;;;;;;5073582;28;20200;-62
2021/12/30 00:49:16;;;;;;;32.00;20.40;;;;;;;;;;5073685;28;20606;-62
2021/12/30 00:51:42;;;;;;;27.57;19.10;;;;;;;;;;5073504;28;20191;-62
2021/12/30 00:54:08;;;;;;;28.20;19.37;;;;;;;;;;5073362;28;20286;-62
2021/12/30 00:56:34;;;;;;;28.37;18.57;;;;;;;;;;5073281;28;20287;-62
2021/12/30 00:59:00;;;;;;;31.07;19.43;;;;;;;;;;5073371;28;20651;-62
2021/12/30 01:01:26;;;;;;;32.83;19.83;;;;;;;;;;5073203;28;20202;-62
2021/12/30 01:03:52;;;;;;;23.77;18.63;;;;;;;;;;5072998;28;20199;-62
2021/12/30 01:06:20;;;;;;;33.70;19.33;;;;;;;;;;5070450;28;20222;-62
2021/12/30 01:08:46;;;;;;;33.63;19.33;;;;;;;;;;5053278;28;20208;-62
2021/12/30 01:11:12;;;;;;;33.73;20.13;;;;;;;;;;5053210;28;20200;-62
2021/12/30 01:13:42;;;;;;;31.60;19.57;;;;;;;;;;5053328;28;20184;-63
2021/12/30 01:16:16;;;;;;;29.57;19.13;;;;;;;;;;5053251;28;20224;-63
2021/12/30 01:19:14;;;;;;;27.03;18.07;;;;;;;;;;5052929;28;20212;-63
2021/12/30 01:21:42;;;;;;;29.73;18.00;;;;;;;;;;5053144;28;20224;-63
2021/12/30 01:24:08;;;;;;;36.13;18.20;;;;;;;;;;5052931;28;20208;-63
2021/12/30 01:26:34;;;;;;;35.00;16.97;;;;;;;;;;5048817;28;20246;-66
2021/12/30 01:29:00;;;;;;;32.40;16.63;;;;;;;;;;5052761;28;20200;-66
2021/12/30 01:31:26;;;;;;;25.70;14.60;;;;;;;;;;5052849;28;20201;-66
2021/12/30 01:33:54;;;;;;;26.47;14.63;;;;;;;;;;5052651;28;20205;-65
2021/12/30 01:36:21;;;;;;;25.30;13.93;;;;;;;;;;5052723;28;20180;-65
2021/12/30 01:38:51;;;;;;;26.57;14.67;;;;;;;;;;5052659;28;20689;-67
2021/12/30 01:41:17;;;;;;;22.83;14.33;;;;;;;;;;5052256;28;20246;-67
2021/12/30 01:43:43;;;;;;;27.40;13.30;;;;;;;;;;5052732;28;20298;-67
2021/12/30 01:46:10;;;;;;;25.37;12.97;;;;;;;;;;5052111;28;20199;-67
2021/12/30 01:48:36;;;;;;;22.10;12.57;;;;;;;;;;5052261;28;20208;-68
2021/12/30 01:51:03;;;;;;;27.40;13.13;;;;;;;;;;5052211;28;20196;-68
2021/12/30 01:53:29;;;;;;;23.80;12.43;;;;;;;;;;5052548;28;20227;-68
2021/12/30 01:55:56;;;;;;;26.80;13.17;;;;;;;;;;5052186;28;20239;-68
2021/12/30 01:58:22;;;;;;;27.57;12.13;;;;;;;;;;5052351;28;20854;-67
2021/12/30 02:00:49;;;;;;;24.00;12.40;;;;;;;;;;5052398;28;20200;-67
2021/12/30 02:03:15;;;;;;;28.23;12.73;;;;;;;;;;5052216;28;20635;-67
2021/12/30 02:05:42;;;;;;;25.17;12.40;;;;;;;;;;5052088;28;20233;-69
2021/12/30 02:08:12;;;;;;;24.40;13.03;;;;;;;;;;5052175;28;20214;-67
2021/12/30 02:10:40;;;;;;;23.83;12.30;;;;;;;;;;5052191;28;20200;-68
2021/12/30 02:13:07;;;;;;;30.63;12.77;;;;;;;;;;5052125;28;20250;-67
2021/12/30 02:15:34;;;;;;;24.60;12.67;;;;;;;;;;5052063;28;20671;-67
2021/12/30 02:18:01;;;;;;;34.57;13.00;;;;;;;;;;5052167;28;20595;-67
2021/12/30 02:20:40;;;;;;;26.43;12.37;;;;;;;;;;5052326;28;20200;-67
2021/12/30 02:23:06;;;;;;;24.63;12.20;;;;;;;;;;5052065;28;20232;-67
2021/12/30 02:25:32;;;;;;;22.10;10.80;;;;;;;;;;5052183;28;20200;-67
2021/12/30 02:27:58;;;;;;;21.50;10.13;;;;;;;;;;5051983;28;20208;-67
2021/12/30 02:30:24;;;;;;;21.20;9.77;;;;;;;;;;5052144;28;20294;-67
2021/12/30 02:32:50;;;;;;;23.60;9.60;;;;;;;;;;5052201;28;20288;-67
2021/12/30 02:35:16;;;;;;;23.00;8.50;;;;;;;;;;5051937;28;20212;-67
2021/12/30 02:37:43;;;;;;;19.87;9.37;;;;;;;;;;5052062;28;20208;-67
2021/12/30 02:40:10;;;;;;;18.77;9.07;;;;;;;;;;5051810;28;20277;-67
2021/12/30 02:42:36;;;;;;;25.10;8.60;;;;;;;;;;5051952;28;20341;-67
2021/12/30 02:45:02;;;;;;;20.43;9.13;;;;;;;;;;5051978;28;20709;-67
2021/12/30 02:47:32;;;;;;;28.87;9.47;;;;;;;;;;5052165;28;20303;-67
2021/12/30 02:49:59;;;;;;;17.87;8.40;;;;;;;;;;5051904;28;20208;-67
2021/12/30 02:55:03;;;;;;;21.03;8.00;;;;;;;;;;5604880;23;20236;-60
2021/12/30 02:57:29;;;;;;;20.67;8.20;;;;;;;;;;5031232;28;20205;-60
2021/12/30 02:59:55;;;;;;;22.23;9.10;;;;;;;;;;5035730;28;20290;-60
2021/12/30 03:02:21;;;;;;;20.90;8.63;;;;;;;;;;5035549;28;20319;-60
2021/12/30 03:04:47;;;;;;;26.10;9.93;;;;;;;;;;5035507;28;20232;-60
2021/12/30 03:07:17;;;;;;;22.77;9.17;;;;;;;;;;5034827;28;20667;-60
2021/12/30 03:09:43;;;;;;;30.63;9.87;;;;;;;;;;5034979;28;20208;-60
2021/12/30 03:12:11;;;;;;;23.23;9.53;;;;;;;;;;5035383;28;20193;-60
2021/12/30 03:14:38;;;;;;;24.27;9.47;;;;;;;;;;5035200;28;20205;-60
2021/12/30 03:17:04;;;;;;;18.80;8.40;;;;;;;;;;5034070;28;20664;-59
2021/12/30 03:19:30;;;;;;;24.77;9.20;;;;;;;;;;5035261;28;20209;-60
2021/12/30 03:21:56;;;;;;;25.00;9.73;;;;;;;;;;5035314;28;20231;-60
2021/12/30 03:24:23;;;;;;;20.50;9.90;;;;;;;;;;5033361;28;20196;-60
2021/12/30 03:26:49;;;;;;;25.27;10.37;;;;;;;;;;5033356;28;20272;-60
2021/12/30 03:29:16;;;;;;;27.63;10.63;;;;;;;;;;5035188;28;20271;-60
2021/12/30 03:31:42;;;;;;;29.93;11.23;;;;;;;;;;5034642;28;20698;-60
2021/12/30 03:34:08;;;;;;;25.20;9.87;;;;;;;;;;5034918;28;20224;-60
2021/12/30 03:36:34;;;;;;;27.07;10.47;;;;;;;;;;5034595;28;20539;-60
2021/12/30 03:39:01;;;;;;;27.60;11.60;;;;;;;;;;5034556;28;20272;-60
2021/12/30 03:41:28;;;;;;;29.63;10.93;;;;;;;;;;5034789;28;20201;-60
2021/12/30 03:43:55;;;;;;;28.83;9.50;;;;;;;;;;5034803;28;20569;-60
2021/12/30 03:46:22;;;;;;;30.47;10.67;;;;;;;;;;5034642;28;20255;-60
2021/12/30 03:48:48;;;;;;;24.00;9.60;;;;;;;;;;5034572;28;20208;-60
2021/12/30 03:51:21;;;;;;;27.17;9.37;;;;;;;;;;5034580;28;20609;-60
2021/12/30 03:53:49;;;;;;;29.50;9.13;;;;;;;;;;5034402;28;20229;-60
2021/12/30 03:56:16;;;;;;;26.40;8.83;;;;;;;;;;5032420;28;20371;-60
2021/12/30 03:58:43;;;;;;;28.63;9.13;;;;;;;;;;5032253;28;20201;-60
2021/12/30 04:01:10;;;;;;;30.90;9.30;;;;;;;;;;5034504;28;20247;-60
2021/12/30 04:03:38;;;;;;;29.03;9.63;;;;;;;;;;5034208;28;20597;-60
2021/12/30 04:06:04;;;;;;;25.73;9.07;;;;;;;;;;5034468;28;20205;-60
2021/12/30 04:08:30;;;;;;;29.97;9.20;;;;;;;;;;5032904;28;20192;-60
2021/12/30 04:10:56;;;;;;;30.87;9.17;;;;;;;;;;5034457;28;20201;-60
2021/12/30 04:13:22;;;;;;;34.83;9.33;;;;;;;;;;5034074;28;20197;-60
2021/12/30 04:15:48;;;;;;;30.07;9.13;;;;;;;;;;5034184;28;20251;-60
2021/12/30 04:18:14;;;;;;;29.57;9.23;;;;;;;;;;5034207;28;20243;-60
2021/12/30 04:20:42;;;;;;;29.20;8.07;;;;;;;;;;5034136;28;20197;-60
2021/12/30 04:23:08;;;;;;;28.80;8.70;;;;;;;;;;5033860;28;20225;-60
2021/12/30 04:25:34;;;;;;;25.57;7.53;;;;;;;;;;5034076;28;20201;-60
2021/12/30 04:28:00;;;;;;;29.50;8.13;;;;;;;;;;5034095;28;20221;-60
2021/12/30 04:30:26;;;;;;;30.17;8.70;;;;;;;;;;5033948;28;20741;-60
2021/12/30 04:32:52;;;;;;;31.77;8.30;;;;;;;;;;5034097;28;20283;-60
2021/12/30 04:35:18;;;;;;;26.47;8.33;;;;;;;;;;5033798;28;20622;-59
2021/12/30 04:37:49;;;;;;;27.37;8.07;;;;;;;;;;5033558;28;20659;-59
2021/12/30 04:40:15;;;;;;;22.07;7.13;;;;;;;;;;5031853;28;20654;-59
2021/12/30 04:42:41;;;;;;;25.73;7.80;;;;;;;;;;5033093;28;20582;-59
2021/12/30 04:45:07;;;;;;;27.30;8.47;;;;;;;;;;5033404;28;20691;-60
2021/12/30 04:47:33;;;;;;;26.47;7.90;;;;;;;;;;5033429;28;20209;-59
2021/12/30 04:49:59;;;;;;;27.97;7.67;;;;;;;;;;5033284;28;20821;-59
2021/12/30 04:52:25;;;;;;;28.00;7.97;;;;;;;;;;5033229;28;20197;-60
2021/12/30 04:54:53;;;;;;;29.10;8.50;;;;;;;;;;5032082;28;20295;-59
2021/12/30 04:57:19;;;;;;;26.57;7.60;;;;;;;;;;5033064;28;20201;-59
2021/12/30 04:59:45;;;;;;;28.73;9.00;;;;;;;;;;5033304;28;20553;-60
2021/12/30 05:02:12;;;;;;;28.10;8.43;;;;;;;;;;5033284;28;20223;-59
2021/12/30 05:04:38;;;;;;;26.30;7.83;;;;;;;;;;5033200;28;20227;-59
2021/12/30 05:07:04;;;;;;;25.90;8.13;;;;;;;;;;5033287;28;20197;-59
2021/12/30 05:09:31;;;;;;;27.50;7.83;;;;;;;;;;5032955;28;20201;-60
2021/12/30 05:11:59;;;;;;;28.60;8.00;;;;;;;;;;5033059;28;20231;-60
2021/12/30 05:14:25;;;;;;;23.00;7.70;;;;;;;;;;5033043;28;20189;-60
2021/12/30 05:16:52;;;;;;;30.67;8.80;;;;;;;;;;5032869;28;20193;-60
2021/12/30 05:19:18;;;;;;;26.33;8.23;;;;;;;;;;5032838;28;20239;-60
2021/12/30 05:21:44;;;;;;;27.30;7.83;;;;;;;;;;5032699;28;20246;-59
2021/12/30 05:24:11;;;;;;;29.27;9.53;;;;;;;;;;5029307;28;20204;-59
2021/12/30 05:26:37;;;;;;;28.20;8.90;;;;;;;;;;5032360;28;20192;-59
2021/12/30 05:29:04;;;;;;;24.17;7.90;;;;;;;;;;5032434;28;20539;-59
2021/12/30 05:31:31;;;;;;;24.10;8.67;;;;;;;;;;5032783;28;20209;-59
2021/12/30 05:33:57;;;;;;;25.43;8.00;;;;;;;;;;5032520;28;20638;-59
2021/12/30 05:36:23;;;;;;;34.80;9.07;;;;;;;;;;5032605;28;20280;-59
2021/12/30 05:38:49;;;;;;;27.90;8.23;;;;;;;;;;5032660;28;20208;-59
2021/12/30 05:41:15;;;;;;;27.57;7.97;;;;;;;;;;5032705;28;20219;-59
2021/12/30 05:43:41;;;;;;;26.93;8.53;;;;;;;;;;5032454;28;20746;-59
2021/12/30 05:46:08;;;;;;;30.17;9.53;;;;;;;;;;5032577;28;20243;-59
2021/12/30 05:48:34;;;;;;;21.57;8.43;;;;;;;;;;5032413;28;20689;-59
2021/12/30 05:51:01;;;;;;;31.67;9.50;;;;;;;;;;5032202;28;20201;-59
2021/12/30 05:53:27;;;;;;;33.27;9.70;;;;;;;;;;5032231;28;20263;-59
2021/12/30 05:55:53;;;;;;;29.70;10.10;;;;;;;;;;5032030;28;20240;-59
2021/12/30 05:58:19;;;;;;;25.23;9.80;;;;;;;;;;5032257;28;20698;-59
2021/12/30 06:00:47;;;;;;;39.00;10.67;;;;;;;;;;5032179;28;20228;-59
2021/12/30 06:03:15;;;;;;;37.60;10.40;;;;;;;;;;5032184;28;20225;-59
2021/12/30 06:05:41;;;;;;;33.83;12.47;;;;;;;;;;5032199;28;20574;-60
2021/12/30 06:08:07;;;;;;;34.00;12.80;;;;;;;;;;5031944;28;20643;-59
2021/12/30 06:10:33;;;;;;;33.00;11.17;;;;;;;;;;5032342;28;20199;-59
2021/12/30 06:12:59;;;;;;;27.90;11.00;;;;;;;;;;5032053;28;20227;-60
2021/12/30 06:15:25;;;;;;;32.27;11.03;;;;;;;;;;5032206;28;20243;-61
2021/12/30 06:17:51;;;;;;;31.53;11.57;;;;;;;;;;5031922;28;20201;-59
2021/12/30 06:20:18;;;;;;;38.40;12.17;;;;;;;;;;5032221;28;20201;-59
2021/12/30 06:22:44;;;;;;;35.00;11.33;;;;;;;;;;5028173;28;20690;-59
2021/12/30 06:25:11;;;;;;;31.43;12.33;;;;;;;;;;5031219;28;20612;-60
2021/12/30 06:27:37;;;;;;;27.63;11.67;;;;;;;;;;5031351;28;20246;-60
2021/12/30 06:30:04;;;;;;;34.50;11.37;;;;;;;;;;5031699;28;20229;-60
2021/12/30 06:32:30;;;;;;;31.70;12.43;;;;;;;;;;5034113;28;20197;-59
2021/12/30 06:34:56;;;;;;;28.03;10.97;;;;;;;;;;5035895;28;20219;-59
2021/12/30 06:37:23;;;;;;;34.30;12.30;;;;;;;;;;5035943;28;20189;-60
2021/12/30 06:39:49;;;;;;;32.87;12.73;;;;;;;;;;5035951;28;20216;-59
2021/12/30 06:42:15;;;;;;;31.30;12.63;;;;;;;;;;5035948;28;20229;-59
2021/12/30 06:44:41;;;;;;;33.23;13.07;;;;;;;;;;5035750;28;20193;-59
2021/12/30 06:47:08;;;;;;;34.13;14.33;;;;;;;;;;5035661;28;20846;-59
2021/12/30 06:49:37;;;;;;;31.20;13.03;;;;;;;;;;5035905;28;20211;-59
2021/12/30 06:52:04;;;;;;;26.80;13.77;;;;;;;;;;5035666;28;20197;-59
2021/12/30 06:54:31;;;;;;;29.83;12.47;;;;;;;;;;5035723;28;20228;-59
2021/12/30 06:56:59;;;;;;;27.43;12.07;;;;;;;;;;5035715;28;20201;-59
2021/12/30 06:59:25;;;;;;;23.90;11.37;;;;;;;;;;5035592;28;20571;-60
2021/12/30 07:01:51;;;;;;;28.37;12.50;;;;;;;;;;5035407;28;20246;-60
2021/12/30 07:04:17;;;;;;;26.77;12.13;;;;;;;;;;5035675;28;20267;-60
2021/12/30 07:06:44;;;;;;;29.77;13.00;;;;;;;;;;5035392;28;20221;-60
2021/12/30 07:09:09;;;;;;;30.47;12.57;;;;;;;;;;5035333;28;20673;-59
2021/12/30 07:11:37;;;;;;;37.20;14.50;;;;;;;;;;5034987;28;20197;-60
2021/12/30 07:14:03;;;;;;;30.23;13.23;;;;;;;;;;5035377;28;20208;-60
2021/12/30 07:16:29;;;;;;;28.77;13.00;;;;;;;;;;5035384;28;20200;-60
2021/12/30 07:18:55;;;;;;;28.40;14.10;;;;;;;;;;5034940;28;20197;-59
2021/12/30 07:21:21;;;;;;;37.23;15.97;;;;;;;;;;5035173;28;20204;-60
2021/12/30 07:23:47;;;;;;;27.93;13.93;;;;;;;;;;5035026;28;20563;-59
2021/12/30 07:26:13;;;;;;;34.63;14.77;;;;;;;;;;5034993;28;20651;-60
2021/12/30 07:28:40;;;;;;;41.13;16.17;;;;;;;;;;5035040;28;20232;-60
2021/12/30 07:31:07;;;;;;;39.43;15.50;;;;;;;;;;5034615;28;20249;-59
2021/12/30 07:33:33;;;;;;;30.30;15.50;;;;;;;;;;5035113;28;20208;-60
2021/12/30 07:35:59;;;;;;;37.70;15.17;;;;;;;;;;5034890;28;20287;-59
2021/12/30 07:38:25;;;;;;;33.33;15.17;;;;;;;;;;5034974;28;20192;-59
2021/12/30 07:40:51;;;;;;;29.63;15.03;;;;;;;;;;5034436;28;20201;-59
2021/12/30 07:43:17;;;;;;;35.17;16.43;;;;;;;;;;5034409;28;20836;-60
2021/12/30 07:45:44;;;;;;;38.27;16.83;;;;;;;;;;5034776;28;20205;-60
2021/12/30 07:48:10;;;;;;;34.87;17.33;;;;;;;;;;5034592;28;20540;-60
2021/12/30 07:50:36;;;;;;;39.57;17.17;;;;;;;;;;5034689;28;20208;-60
2021/12/30 07:53:02;;;;;;;36.17;18.33;;;;;;;;;;5034478;28;20225;-59
2021/12/30 07:55:28;;;;;;;38.53;16.37;;;;;;;;;;5034418;28;20221;-60
2021/12/30 07:57:57;;;;;;;36.27;17.50;;;;;;;;;;5034277;28;20224;-60
2021/12/30 08:00:24;;;;;;;38.63;17.53;;;;;;;;;;5034583;28;20205;-60
2021/12/30 08:02:51;;;;;;;33.30;16.13;;;;;;;;;;5034286;28;20308;-60
2021/12/30 08:05:18;;;;;;;39.10;17.30;;;;;;;;;;5034692;28;20205;-60
2021/12/30 08:07:46;;;;;;;36.30;16.90;;;;;;;;;;5034292;28;20251;-61
2021/12/30 08:10:14;;;;;;;33.63;16.00;;;;;;;;;;5034274;28;20208;-60
2021/12/30 08:12:41;;;;;;;34.23;15.90;;;;;;;;;;5033983;28;20674;-61
2021/12/30 08:15:07;;;;;;;30.63;15.30;;;;;;;;;;5034019;28;20201;-60
2021/12/30 08:17:33;;;;;;;31.63;15.70;;;;;;;;;;5034161;28;20243;-60
2021/12/30 08:20:01;;;;;;;32.83;16.27;;;;;;;;;;5034199;28;20208;-60
2021/12/30 08:22:27;;;;;;;30.90;15.17;;;;;;;;;;5033933;28;20319;-60
2021/12/30 08:24:53;;;;;;;35.13;15.53;;;;;;;;;;5033940;28;20623;-60
2021/12/30 08:27:19;;;;;;;29.03;14.03;;;;;;;;;;5034228;28;20730;-60
2021/12/30 08:29:45;;;;;;;30.30;14.03;;;;;;;;;;5034046;28;20215;-60
2021/12/30 08:32:12;;;;;;;24.37;13.90;;;;;;;;;;5034048;28;20188;-60
2021/12/30 08:34:39;;;;;;;29.53;13.27;;;;;;;;;;5033969;28;20204;-60
2021/12/30 08:37:06;;;;;;;23.33;12.83;;;;;;;;;;5033868;28;20219;-60
2021/12/30 08:39:35;;;;;;;25.53;12.83;;;;;;;;;;5033944;28;20208;-61
2021/12/30 08:42:02;;;;;;;21.33;12.37;;;;;;;;;;5033657;28;20280;-60
2021/12/30 08:44:28;;;;;;;17.67;11.23;;;;;;;;;;5033601;28;20287;-60
2021/12/30 08:46:54;;;;;;;21.33;11.83;;;;;;;;;;5033196;28;20229;-61
2021/12/30 08:49:20;;;;;;;22.00;11.20;;;;;;;;;;5033651;28;20617;-61
2021/12/30 08:51:46;;;;;;;18.80;11.10;;;;;;;;;;5033455;28;20231;-61
2021/12/30 08:54:13;;;;;;;13.40;9.57;;;;;;;;;;5032436;28;20578;-60
2021/12/30 08:56:39;;;;;;;17.20;10.00;;;;;;;;;;5033321;28;20256;-60
2021/12/30 08:59:05;;;;;;;11.63;9.93;;;;;;;;;;5033340;28;20572;-60
2021/12/30 09:01:31;;;;;;;12.37;8.90;;;;;;;;;;5033492;28;20200;-61
2021/12/30 09:03:57;;;;;;;14.20;8.87;;;;;;;;;;5033277;28;20577;-60
2021/12/30 09:06:24;;;;;;;13.47;8.43;;;;;;;;;;5030901;28;20262;-60
2021/12/30 09:08:50;;;;;;;11.93;8.23;;;;;;;;;;5032821;28;20201;-60
2021/12/30 09:11:18;;;;;;;12.37;8.43;;;;;;;;;;5033337;28;20192;-60
2021/12/30 09:13:44;;;;;;;10.90;8.27;;;;;;;;;;5032940;28;20199;-61
2021/12/30 09:16:10;;;;;;;9.63;8.07;;;;;;;;;;5032455;28;20243;-61
2021/12/30 09:18:36;;;;;;;10.37;7.73;;;;;;;;;;5032905;28;20197;-62
2021/12/30 09:21:02;;;;;;;10.50;8.00;;;;;;;;;;5032733;28;20200;-64
2021/12/30 09:23:28;;;;;;;15.73;9.37;;;;;;;;;;5032582;28;20264;-66
2021/12/30 09:25:56;;;;;;;10.90;8.60;;;;;;;;;;5032179;28;20227;-65
2021/12/30 09:28:24;;;;;;;14.07;9.10;;;;;;;;;;5032111;28;20254;-60
2021/12/30 09:30:50;;;;;;;11.83;8.87;;;;;;;;;;5032372;28;20189;-65
2021/12/30 09:33:16;;;;;;;11.73;10.30;;;;;;;;;;5032067;28;20196;-63
2021/12/30 09:35:43;;;;;;;10.43;8.80;;;;;;;;;;5032081;28;20262;-64
2021/12/30 09:38:09;;;;;;;11.43;9.57;;;;;;;;;;5032087;28;20262;-62
2021/12/30 09:40:35;;;;;;;11.17;9.70;;;;;;;;;;5032130;28;20205;-63
2021/12/30 09:43:02;;;;;;;12.20;9.20;;;;;;;;;;5031813;28;20312;-61
2021/12/30 09:45:30;;;;;;;10.47;8.97;;;;;;;;;;5032120;28;20215;-61
2021/12/30 09:47:57;;;;;;;10.97;9.23;;;;;;;;;;5031885;28;20201;-61
2021/12/30 09:50:25;;;;;;;10.17;8.33;;;;;;;;;;5032063;28;20217;-60
2021/12/30 09:52:51;;;;;;;10.23;8.90;;;;;;;;;;5032077;28;20296;-60
2021/12/30 09:55:17;;;;;;;9.90;8.43;;;;;;;;;;5032078;28;20607;-61
2021/12/30 09:57:43;;;;;;;9.13;8.20;;;;;;;;;;5031448;28;20197;-62
2021/12/30 10:00:12;;;;;;;8.90;7.63;;;;;;;;;;5031928;28;20201;-62
2021/12/30 10:02:41;;;;;;;10.73;8.10;;;;;;;;;;5032210;28;20225;-63
2021/12/30 10:05:09;;;;;;;10.67;7.90;;;;;;;;;;5032120;28;20243;-61
2021/12/30 10:07:39;;;;;;;11.17;8.23;;;;;;;;;;5031921;28;20236;-61
2021/12/30 10:10:24;;;;;;;9.27;7.43;;;;;;;;;;5028799;28;20205;-62
2021/12/30 10:12:50;;;;;;;9.50;7.67;;;;;;;;;;5031336;28;20197;-61
2021/12/30 10:15:16;;;;;;;9.00;7.00;;;;;;;;;;5031890;28;20316;-60
2021/12/30 10:17:43;;;;;;;9.07;6.67;;;;;;;;;;5031920;28;20655;-60
2021/12/30 10:20:16;;;;;;;9.03;7.07;;;;;;;;;;5031677;28;20196;-61
2021/12/30 10:22:42;;;;;;;8.20;6.97;;;;;;;;;;5031858;28;20234;-61
2021/12/30 10:25:23;;;;;;;7.43;6.30;;;;;;;;;;5031714;28;20280;-62
2021/12/30 10:27:49;;;;;;;8.77;6.47;;;;;;;;;;5031774;28;20197;-61
2021/12/30 10:30:28;;;;;;;7.23;6.20;;;;;;;;;;5031726;28;20262;-61
2021/12/30 10:33:00;;;;;;;8.17;6.10;;;;;;;;;;5031733;28;20344;-61
2021/12/30 10:35:26;;;;;;;6.60;5.87;;;;;;;;;;5031887;28;20205;-62
2021/12/30 10:38:01;;;;;;;6.33;5.73;;;;;;;;;;5031705;28;20208;-63
2021/12/30 10:40:28;;;;;;;6.20;5.60;;;;;;;;;;5031433;28;20628;-62
2021/12/30 10:43:09;;;;;;;6.07;5.40;;;;;;;;;;5031535;28;20232;-61
2021/12/30 10:45:35;;;;;;;6.30;5.17;;;;;;;;;;5030869;28;20207;-62
2021/12/30 10:48:03;;;;;;;5.03;4.30;;;;;;;;;;5031726;28;20205;-62
2021/12/30 10:50:29;;;;;;;5.90;4.60;;;;;;;;;;5031573;28;20201;-62
2021/12/30 10:52:56;;;;;;;5.07;4.57;;;;;;;;;;5031470;28;20217;-62
2021/12/30 10:55:23;;;;;;;5.00;4.50;;;;;;;;;;5030376;28;20252;-61
2021/12/30 10:57:49;;;;;;;4.40;4.00;;;;;;;;;;5030117;28;20600;-62
2021/12/30 11:00:24;;;;;;;5.30;4.10;;;;;;;;;;5030951;28;20239;-62
2021/12/30 11:02:50;;;;;;;4.50;4.10;;;;;;;;;;5030685;28;20223;-61
2021/12/30 11:05:18;;;;;;;5.53;4.40;;;;;;;;;;5031206;28;20203;-62
2021/12/30 11:07:48;;;;;;;4.40;4.00;;;;;;;;;;5031677;28;20224;-61
2021/12/30 11:10:15;;;;;;;4.30;3.87;;;;;;;;;;5031356;28;20196;-62
2021/12/30 11:12:42;;;;;;;4.67;4.23;;;;;;;;;;5031292;28;20231;-62
2021/12/30 11:15:18;;;;;;;7.07;4.30;;;;;;;;;;5031337;28;20658;-61
2021/12/30 11:17:44;;;;;;;6.10;4.53;;;;;;;;;;5032071;28;20246;-62
2021/12/30 11:20:10;;;;;;;6.57;4.70;;;;;;;;;;5034771;28;20224;-61
2021/12/30 11:22:39;;;;;;;5.07;4.57;;;;;;;;;;5034584;28;20224;-62
2021/12/30 11:25:06;;;;;;;7.00;5.00;;;;;;;;;;5034783;28;20208;-61
2021/12/30 11:27:32;;;;;;;5.47;4.77;;;;;;;;;;5035112;28;20197;-60
2021/12/30 11:29:59;;;;;;;6.10;5.13;;;;;;;;;;5033031;28;20243;-60
2021/12/30 11:32:27;;;;;;;7.40;5.43;;;;;;;;;;5032561;28;20201;-60
2021/12/30 11:34:53;;;;;;;6.43;5.50;;;;;;;;;;5034516;28;20207;-59
2021/12/30 11:37:20;;;;;;;7.17;6.47;;;;;;;;;;5034628;28;20303;-60
2021/12/30 11:39:49;;;;;;;6.90;6.20;;;;;;;;;;5034905;28;20205;-60
2021/12/30 11:42:17;;;;;;;8.00;7.20;;;;;;;;;;5034357;28;20296;-60
2021/12/30 11:44:44;;;;;;;10.17;8.17;;;;;;;;;;5033898;28;20243;-60
2021/12/30 11:47:25;;;;;;;12.23;8.80;;;;;;;;;;5033655;28;20659;-61
2021/12/30 11:49:52;;;;;;;12.07;8.80;;;;;;;;;;5034177;28;20314;-61
2021/12/30 11:52:37;;;;;;;13.20;9.93;;;;;;;;;;5034038;28;20255;-60
2021/12/30 11:55:25;;;;;;;11.67;9.07;;;;;;;;;;5034291;28;20229;-60
2021/12/30 11:57:51;;;;;;;11.00;9.80;;;;;;;;;;5034387;28;20201;-60
2021/12/30 12:00:36;;;;;;;12.20;9.70;;;;;;;;;;5032413;28;20288;-60
2021/12/30 12:03:02;;;;;;;13.67;10.70;;;;;;;;;;5030357;28;20244;-60
2021/12/30 12:05:42;;;;;;;12.33;9.90;;;;;;;;;;5034180;28;20204;-60
2021/12/30 12:08:09;;;;;;;13.67;10.10;;;;;;;;;;5034053;28;20250;-61
2021/12/30 12:10:36;;;;;;;13.10;9.47;;;;;;;;;;5034199;28;20201;-61
2021/12/30 12:13:17;;;;;;;12.80;10.50;;;;;;;;;;5034174;28;20197;-62
2021/12/30 12:15:43;;;;;;;13.60;9.60;;;;;;;;;;5033968;28;20287;-62
2021/12/30 12:18:11;;;;;;;12.13;10.20;;;;;;;;;;5033952;28;20276;-61
2021/12/30 12:20:37;;;;;;;11.17;9.47;;;;;;;;;;5034021;28;20270;-64
2021/12/30 12:23:17;;;;;;;15.30;10.13;;;;;;;;;;5033924;28;20560;-61
2021/12/30 12:25:45;;;;;;;11.83;9.40;;;;;;;;;;5033616;28;20272;-63
2021/12/30 12:28:18;;;;;;;13.10;10.60;;;;;;;;;;5033564;28;20205;-60
2021/12/30 12:30:51;;;;;;;14.10;10.77;;;;;;;;;;5032558;28;20300;-61
2021/12/30 12:33:24;;;;;;;13.47;9.77;;;;;;;;;;5033579;28;20296;-61
2021/12/30 12:35:50;;;;;;;10.33;9.03;;;;;;;;;;5033508;28;20204;-60
2021/12/30 12:38:35;;;;;;;10.80;8.83;;;;;;;;;;5033383;28;20203;-60
2021/12/30 12:41:15;;;;;;;11.00;8.53;;;;;;;;;;5033431;28;20205;-60
2021/12/30 12:43:41;;;;;;;11.00;7.73;;;;;;;;;;5033073;28;20602;-61
2021/12/30 12:46:07;;;;;;;9.00;8.10;;;;;;;;;;5033140;28;20205;-61
2021/12/30 12:48:38;;;;;;;10.20;8.97;;;;;;;;;;5033252;28;20208;-61
2021/12/30 12:51:06;;;;;;;10.73;8.60;;;;;;;;;;5033238;28;20204;-61
2021/12/30 12:53:43;;;;;;;9.93;8.33;;;;;;;;;;5033049;28;20295;-60
2021/12/30 12:56:11;;;;;;;11.27;8.33;;;;;;;;;;5033171;28;20224;-61
2021/12/30 12:58:39;;;;;;;11.27;8.27;;;;;;;;;;5032989;28;20209;-60
2021/12/30 13:01:05;;;;;;;8.47;7.70;;;;;;;;;;5033037;28;20196;-61
2021/12/30 13:03:31;;;;;;;12.17;8.50;;;;;;;;;;5032844;28;20236;-59
2021/12/30 13:06:01;;;;;;;9.80;8.70;;;;;;;;;;5032981;28;20244;-61
2021/12/30 13:08:28;;;;;;;15.40;8.37;;;;;;;;;;5032531;28;20189;-62
2021/12/30 13:10:54;;;;;;;11.17;8.03;;;;;;;;;;5032535;28;20232;-60
2021/12/30 13:13:29;;;;;;;11.13;7.60;;;;;;;;;;5032437;28;20193;-62
2021/12/30 13:15:55;;;;;;;11.70;8.17;;;;;;;;;;5031840;28;20853;-62
2021/12/30 13:18:21;;;;;;;8.77;7.53;;;;;;;;;;5032468;28;20267;-62
2021/12/30 13:20:48;;;;;;;11.17;7.40;;;;;;;;;;5032713;28;20596;-62
2021/12/30 13:23:24;;;;;;;10.10;7.50;;;;;;;;;;5031270;28;20217;-62
2021/12/30 13:25:58;;;;;;;11.67;6.50;;;;;;;;;;5032473;28;20197;-63
2021/12/30 13:28:23;;;;;;;11.70;6.43;;;;;;;;;;5032642;28;20205;-61
2021/12/30 13:30:51;;;;;;;9.63;6.17;;;;;;;;;;5032529;28;20806;-62
2021/12/30 13:33:17;;;;;;;8.10;5.80;;;;;;;;;;5032338;28;20299;-62
2021/12/30 13:35:44;;;;;;;6.97;5.20;;;;;;;;;;5032294;28;20200;-60
2021/12/30 13:38:10;;;;;;;11.03;5.50;;;;;;;;;;5032425;28;20284;-61
2021/12/30 13:40:40;;;;;;;8.20;5.57;;;;;;;;;;5032252;28;20197;-61
2021/12/30 13:43:08;;;;;;;9.47;5.80;;;;;;;;;;5032318;28;20228;-61
2021/12/30 13:45:35;;;;;;;8.00;5.80;;;;;;;;;;5032164;28;20201;-59
2021/12/30 13:48:06;;;;;;;7.73;5.43;;;;;;;;;;5032336;28;20769;-58
2021/12/30 13:50:33;;;;;;;8.07;5.33;;;;;;;;;;5032181;28;20193;-58
2021/12/30 13:53:02;;;;;;;8.97;5.60;;;;;;;;;;5032301;28;20219;-59
2021/12/30 13:55:29;;;;;;;8.70;5.17;;;;;;;;;;5028775;28;20245;-58
2021/12/30 13:58:03;;;;;;;8.73;5.13;;;;;;;;;;5031478;28;20200;-60
2021/12/30 14:00:38;;;;;;;9.80;5.63;;;;;;;;;;5031507;28;20193;-59
2021/12/30 14:03:05;;;;;;;8.20;5.00;;;;;;;;;;5022336;28;20262;-60
2021/12/30 14:05:34;;;;;;;8.57;5.10;;;;;;;;;;5031370;28;20231;-59
2021/12/30 14:08:03;;;;;;;8.23;4.67;;;;;;;;;;5031962;28;20207;-59
2021/12/30 14:10:42;;;;;;;9.43;4.80;;;;;;;;;;5031833;28;20200;-58
2021/12/30 14:13:08;;;;;;;6.53;4.50;;;;;;;;;;5031510;28;20193;-59
2021/12/30 14:15:35;;;;;;;9.97;4.73;;;;;;;;;;5031727;28;20629;-58
2021/12/30 14:18:03;;;;;;;7.63;4.30;;;;;;;;;;5031729;28;20208;-59
2021/12/30 14:20:29;;;;;;;9.63;4.50;;;;;;;;;;5031782;28;20216;-59
2021/12/30 14:22:57;;;;;;;7.50;5.00;;;;;;;;;;5031876;28;20570;-60
2021/12/30 14:25:31;;;;;;;9.37;4.47;;;;;;;;;;5031701;28;20300;-62
2021/12/30 14:27:57;;;;;;;7.73;4.70;;;;;;;;;;5030858;28;20207;-59
2021/12/30 14:30:23;;;;;;;6.47;4.17;;;;;;;;;;5031076;28;20200;-59